»·PEaware :: N733PY L52-L88

N733PY :: L52-L88

FLIGHT INFORMATION

Flight Status: Arrived
Operator: Privately registered:
United States
More flights under this callsign
Pilot: Ian P. (41689)
Aircraft: CESSNA 172 SKYHAWK
(C172)
More flights by this aircraft type
Origin: L52 Oceano Co
United States
Destination: L88 New Cuyama
United States
More flights between these airports :: More routes between these airports
Route:
File this flight plan on PilotEdge
Remarks:
Altitude:
(Current/Filed)
5,000ft
Speed:
(Current/Filed)
100kts
Departed: 02-Oct-22 09:22 AM
Arrived: 02-Oct-22 09:53 AM
Distance/Time
Traveled:
47nm/0:31
Distance/Time
To Go:
Arrived

Flight Plot

Page will automatically refresh every two minutes.


Map Options




Map Legend


Flown Route
Filed Route
Departure Airport
Arrival Airport
Navaid (VOR, NDB)
Fix

Horizontal Profiles

Position Reports

Time Latitude Longitude Heading Altitude Ground
Speed
02-Oct-22 09:00 35.103386 -120.624486 227 17ft 0kts
02-Oct-22 09:01 35.103386 -120.624486 227 17ft 0kts
02-Oct-22 09:02 35.103386 -120.624486 227 17ft 0kts
02-Oct-22 09:03 35.103386 -120.624486 227 17ft 0kts
02-Oct-22 09:04 35.103386 -120.624486 227 17ft 0kts
02-Oct-22 09:05 35.103386 -120.624486 227 17ft 0kts
02-Oct-22 09:06 35.103386 -120.624486 227 17ft 0kts
02-Oct-22 09:07 35.103386 -120.624486 227 17ft 0kts
02-Oct-22 09:08 35.103386 -120.624486 227 17ft 0kts
02-Oct-22 09:09 35.103386 -120.624486 227 17ft 0kts
02-Oct-22 09:10 35.103386 -120.624486 227 17ft 0kts
02-Oct-22 09:11 35.103386 -120.624486 227 17ft 0kts
02-Oct-22 09:12 35.103386 -120.624486 227 17ft 0kts
02-Oct-22 09:13 35.103386 -120.624486 227 17ft 0kts
02-Oct-22 09:14 35.103386 -120.624486 227 17ft 0kts
02-Oct-22 09:15 35.103386 -120.624486 227 17ft 0kts
02-Oct-22 09:16 35.103386 -120.624486 227 17ft 0kts
02-Oct-22 09:17 35.103386 -120.624486 227 17ft 0kts
02-Oct-22 09:18 35.103386 -120.624486 227 17ft 0kts
02-Oct-22 09:19 35.103382 -120.624492 227 17ft 1kts
02-Oct-22 09:20 35.103512 -120.625206 255 23ft 0kts
02-Oct-22 09:21 35.099759 -120.619189 129 129ft 76kts
02-Oct-22 09:22 35.085560 -120.597071 112 1034ft 89kts
02-Oct-22 09:23 35.074796 -120.569027 111 2104ft 91kts
02-Oct-22 09:24 35.069901 -120.538621 101 3088ft 84kts
02-Oct-22 09:25 35.064385 -120.507936 90 3907ft 91kts
02-Oct-22 09:26 35.062068 -120.480068 101 4831ft 86kts
02-Oct-22 09:27 35.054585 -120.448379 106 5093ft 109kts
02-Oct-22 09:28 35.053652 -120.412044 76 5134ft 109kts
02-Oct-22 09:29 35.050787 -120.375637 108 5088ft 109kts
02-Oct-22 09:30 35.041262 -120.340898 107 5105ft 107kts
02-Oct-22 09:31 35.032511 -120.305781 106 5137ft 107kts
02-Oct-22 09:32 35.024627 -120.270528 104 5151ft 108kts
02-Oct-22 09:33 35.017446 -120.234622 103 5141ft 108kts
02-Oct-22 09:34 35.011062 -120.198725 102 5144ft 109kts
02-Oct-22 09:35 35.005463 -120.162977 99 5091ft 104kts
02-Oct-22 09:36 35.001028 -120.128105 98 5099ft 104kts
02-Oct-22 09:37 34.997592 -120.092974 97 5254ft 102kts
02-Oct-22 09:38 34.994260 -120.060588 96 6061ft 89kts
02-Oct-22 09:39 34.993466 -120.025953 92 6058ft 107kts
02-Oct-22 09:40 34.993836 -119.990722 90 5956ft 106kts
02-Oct-22 09:41 34.995166 -119.953620 89 5977ft 112kts
02-Oct-22 09:42 34.996025 -119.916219 106 5808ft 101kts
02-Oct-22 09:43 34.989091 -119.884741 100 4880ft 89kts
02-Oct-22 09:44 34.982736 -119.855671 109 4278ft 89kts
02-Oct-22 09:45 34.974635 -119.825174 106 3433ft 96kts
02-Oct-22 09:46 34.964127 -119.795469 118 3264ft 100kts
02-Oct-22 09:47 34.951736 -119.764559 123 3533ft 99kts
02-Oct-22 09:48 34.938819 -119.737315 104 4028ft 93kts
02-Oct-22 09:49 34.936962 -119.703907 83 4155ft 111kts
02-Oct-22 09:50 34.931023 -119.669766 111 3433ft 94kts
02-Oct-22 09:51 34.938245 -119.681466 300 2206ft 69kts
02-Oct-22 09:52 34.940915 -119.687335 344 2162ft 0kts
02-Oct-22 09:53 34.940915 -119.687335 344 2162ft 0kts
02-Oct-22 09:54 34.940915 -119.687335 344 2162ft 0kts
02-Oct-22 09:55 34.940915 -119.687335 344 2162ft 0kts

Navigation Log

Ident Type
Flight plan parsing failed, navigation log unavailable